Time,TemperatureF,DewpointF,PressureIn,WindDirection,WindDirectionDegrees,WindSpeedMPH,WindSpeedGustMPH,Humidity,HourlyPrecipIn,Conditions,Clouds,dailyrainin,SoftwareType,DateUTC
2013-09-26 00:24:00,64.0,62.0,29.83,North,351,0.0,0.0,93,0.00,,,0.01,,2013-09-26 04:24:00,
2013-09-26 00:54:00,64.0,62.0,29.84,North,351,0.0,0.0,94,0.00,,,0.01,,2013-09-26 04:54:00,
2013-09-26 01:23:00,64.0,62.0,29.83,North,351,0.0,0.0,94,0.00,,,0.01,,2013-09-26 05:23:00,
2013-09-26 01:52:00,63.0,61.0,29.81,North,351,0.0,0.0,94,0.00,,,0.01,,2013-09-26 05:52:00,
2013-09-26 02:13:00,63.0,61.0,29.81,North,351,0.0,0.0,94,0.00,,,0.01,,2013-09-26 06:13:00,
2013-09-26 02:22:00,63.0,61.0,29.81,North,351,0.0,0.0,94,0.00,,,0.01,,2013-09-26 06:22:00,
2013-09-26 02:53:00,63.0,62.0,29.81,North,351,0.0,0.0,95,0.00,,,0.01,,2013-09-26 06:53:00,
2013-09-26 03:12:00,63.0,61.0,29.80,North,351,0.0,1.0,94,0.00,,,0.01,,2013-09-26 07:12:00,
2013-09-26 03:22:00,63.0,61.0,29.80,North,351,0.0,0.0,93,0.00,,,0.01,,2013-09-26 07:22:00,
2013-09-26 03:42:00,62.0,60.0,29.80,North,351,0.0,3.0,93,0.00,,,0.01,,2013-09-26 07:42:00,
2013-09-26 03:53:00,62.0,59.0,29.80,North,351,0.0,0.0,91,0.00,,,0.01,,2013-09-26 07:53:00,
2013-09-26 04:11:00,62.0,59.0,29.81,North,351,0.0,0.0,91,0.00,,,0.01,,2013-09-26 08:11:00,
2013-09-26 04:22:00,62.0,59.0,29.81,North,351,0.0,0.0,90,0.00,,,0.01,,2013-09-26 08:22:00,
2013-09-26 04:52:00,62.0,59.0,29.81,North,351,0.0,1.0,90,0.00,,,0.01,,2013-09-26 08:52:00,
2013-09-26 05:11:00,62.0,59.0,29.81,North,351,0.0,0.0,90,0.00,,,0.01,,2013-09-26 09:11:00,
2013-09-26 05:22:00,62.0,59.0,29.81,North,351,0.0,0.0,90,0.00,,,0.01,,2013-09-26 09:22:00,
2013-09-26 05:43:00,62.0,59.0,29.81,North,351,0.0,0.0,90,0.00,,,0.01,,2013-09-26 09:43:00,
2013-09-26 05:54:00,62.0,59.0,29.81,North,351,0.0,0.0,90,0.00,,,0.01,,2013-09-26 09:54:00,
2013-09-26 06:23:00,61.0,59.0,29.81,North,351,0.0,0.0,92,0.00,,,0.01,,2013-09-26 10:23:00,
2013-09-26 06:42:00,61.0,59.0,29.82,North,351,0.0,0.0,92,0.00,,,0.01,,2013-09-26 10:42:00,
2013-09-26 06:53:00,60.0,58.0,29.82,North,351,0.0,0.0,93,0.00,,,0.01,,2013-09-26 10:53:00,
2013-09-26 07:12:00,60.0,58.0,29.83,North,351,0.0,0.0,94,0.00,,,0.01,,2013-09-26 11:12:00,
2013-09-26 07:22:00,60.0,58.0,29.83,North,351,0.0,0.0,94,0.00,,,0.01,,2013-09-26 11:22:00,
2013-09-26 07:52:00,59.0,58.0,29.84,North,351,0.0,0.0,95,0.00,,,0.01,,2013-09-26 11:52:00,
2013-09-26 08:12:00,59.0,58.0,29.84,North,351,0.0,0.0,95,0.00,,,0.01,,2013-09-26 12:12:00,
2013-09-26 08:22:00,59.0,58.0,29.84,North,351,0.0,3.0,96,0.00,,,0.01,,2013-09-26 12:22:00,
2013-09-26 08:42:00,60.0,59.0,29.84,NNE,33,0.0,4.0,96,0.00,,,0.01,,2013-09-26 12:42:00,
2013-09-26 08:52:00,60.0,59.0,29.85,NNE,27,0.0,3.0,96,0.00,,,0.01,,2013-09-26 12:52:00,
2013-09-26 09:12:00,61.0,59.0,29.86,NE,56,0.0,2.0,94,0.00,,,0.01,,2013-09-26 13:12:00,
2013-09-26 09:22:00,62.0,59.0,29.86,NE,52,1.0,5.0,90,0.00,,,0.01,,2013-09-26 13:22:00,
2013-09-26 09:52:00,66.0,59.0,29.87,North,360,1.0,6.0,79,0.00,,,0.01,,2013-09-26 13:52:00,
2013-09-26 10:11:00,68.0,60.0,29.87,ENE,75,1.0,6.0,75,0.00,,,0.01,,2013-09-26 14:11:00,
2013-09-26 10:22:00,69.0,60.0,29.87,NE,56,0.0,4.0,73,0.00,,,0.01,,2013-09-26 14:22:00,
2013-09-26 10:42:00,69.0,58.0,29.88,ENE,65,1.0,7.0,69,0.00,,,0.01,,2013-09-26 14:42:00,
2013-09-26 10:52:00,69.0,59.0,29.88,North,5,0.0,5.0,70,0.00,,,0.00,,2013-09-26 14:52:00,
2013-09-26 11:11:00,70.0,57.0,29.89,ENE,72,1.0,6.0,64,0.00,,,0.00,,2013-09-26 15:11:00,
2013-09-26 11:22:00,70.0,58.0,29.89,North,10,2.0,8.0,65,0.00,,,0.00,,2013-09-26 15:22:00,
2013-09-26 11:54:00,72.0,56.0,29.89,NE,56,3.0,9.0,58,0.00,,,0.00,,2013-09-26 15:54:00,
2013-09-26 12:13:00,73.0,58.0,29.89,NNE,24,1.0,6.0,59,0.00,,,0.00,,2013-09-26 16:13:00,
2013-09-26 12:24:00,73.0,55.0,29.89,ENE,66,1.0,4.0,54,0.00,,,0.00,,2013-09-26 16:24:00,
2013-09-26 12:43:00,72.0,56.0,29.89,North,5,2.0,7.0,58,0.00,,,0.00,,2013-09-26 16:43:00,
2013-09-26 12:54:00,73.0,54.0,29.89,NW,325,3.0,6.0,52,0.00,,,0.00,,2013-09-26 16:54:00,
2013-09-26 13:23:00,73.0,54.0,29.88,NNE,27,3.0,10.0,52,0.00,,,0.00,,2013-09-26 17:23:00,
2013-09-26 13:53:00,74.0,54.0,29.88,East,89,2.0,6.0,50,0.00,,,0.00,,2013-09-26 17:53:00,
2013-09-26 14:13:00,74.0,55.0,29.87,NNE,27,3.0,10.0,52,0.00,,,0.00,,2013-09-26 18:13:00,
2013-09-26 14:22:00,75.0,56.0,29.87,North,351,4.0,14.0,51,0.00,,,0.00,,2013-09-26 18:22:00,
2013-09-26 14:52:00,75.0,57.0,29.87,NNW,334,2.0,7.0,53,0.00,,,0.00,,2013-09-26 18:52:00,
2013-09-26 15:12:00,74.0,56.0,29.87,East,99,0.0,10.0,53,0.00,,,0.00,,2013-09-26 19:12:00,
2013-09-26 15:22:00,76.0,57.0,29.87,NW,315,2.0,8.0,51,0.00,,,0.00,,2013-09-26 19:22:00,
2013-09-26 15:52:00,76.0,52.0,29.86,ENE,70,0.0,4.0,44,0.00,,,0.00,,2013-09-26 19:52:00,
2013-09-26 16:12:00,75.0,55.0,29.86,NNW,345,1.0,5.0,49,0.00,,,0.00,,2013-09-26 20:12:00,
2013-09-26 16:22:00,77.0,56.0,29.86,North,10,0.0,4.0,49,0.00,,,0.00,,2013-09-26 20:22:00,
2013-09-26 16:43:00,77.0,54.0,29.86,ENE,60,3.0,9.0,45,0.00,,,0.00,,2013-09-26 20:43:00,
2013-09-26 16:52:00,77.0,55.0,29.86,East,83,1.0,7.0,46,0.00,,,0.00,,2013-09-26 20:52:00,
2013-09-26 17:23:00,76.0,55.0,29.86,WNW,299,1.0,10.0,48,0.00,,,0.00,,2013-09-26 21:23:00,
2013-09-26 17:54:00,75.0,53.0,29.87,NNE,24,0.0,9.0,46,0.00,,,0.00,,2013-09-26 21:54:00,
2013-09-26 18:24:00,73.0,54.0,29.87,North,360,0.0,2.0,51,0.00,,,0.00,,2013-09-26 22:24:00,
2013-09-26 18:54:00,70.0,55.0,29.88,North,360,0.0,2.0,58,0.00,,,0.00,,2013-09-26 22:54:00,
2013-09-26 19:12:00,69.0,55.0,29.89,North,360,0.0,0.0,60,0.00,,,0.00,,2013-09-26 23:12:00,
2013-09-26 19:23:00,68.0,55.0,29.89,North,360,0.0,0.0,63,0.00,,,0.00,,2013-09-26 23:23:00,
2013-09-26 19:53:00,66.0,56.0,29.90,North,360,0.0,0.0,71,0.00,,,0.00,,2013-09-26 23:53:00,
2013-09-26 20:22:00,64.0,56.0,29.91,North,360,0.0,0.0,76,0.00,,,0.00,,2013-09-27 00:22:00,
2013-09-26 20:52:00,63.0,56.0,29.92,North,360,0.0,0.0,79,0.00,,,0.00,,2013-09-27 00:52:00,
2013-09-26 21:12:00,62.0,56.0,29.93,North,360,0.0,0.0,82,0.00,,,0.00,,2013-09-27 01:12:00,
2013-09-26 21:23:00,62.0,57.0,29.93,North,360,0.0,0.0,83,0.00,,,0.00,,2013-09-27 01:23:00,
2013-09-26 21:42:00,61.0,56.0,29.93,North,360,0.0,0.0,84,0.00,,,0.00,,2013-09-27 01:42:00,
2013-09-26 21:52:00,61.0,57.0,29.94,North,360,0.0,0.0,87,0.00,,,0.00,,2013-09-27 01:52:00,
2013-09-26 22:22:00,60.0,57.0,29.95,North,360,0.0,0.0,89,0.00,,,0.00,,2013-09-27 02:22:00,
2013-09-26 22:43:00,60.0,57.0,29.95,NE,45,0.0,1.0,90,0.00,,,0.00,,2013-09-27 02:43:00,
2013-09-26 22:53:00,60.0,57.0,29.95,NE,50,0.0,1.0,89,0.00,,,0.00,,2013-09-27 02:53:00,
2013-09-26 23:22:00,60.0,57.0,29.95,ENE,66,0.0,1.0,89,0.00,,,0.00,,2013-09-27 03:22:00,
2013-09-26 23:55:00,60.0,57.0,29.96,ENE,66,0.0,0.0,89,0.00,,,0.00,,2013-09-27 03:55:00,